createdAt,value
2017-11-11T00:00:21.005Z,81.44
2017-11-11T00:01:21.502Z,80.58
2017-11-11T00:02:21.105Z,80.49
2017-11-11T00:03:20.997Z,80.49
2017-11-11T00:04:20.966Z,80.74
2017-11-11T00:05:21.010Z,80.55
2017-11-11T00:06:20.979Z,80.55
2017-11-11T00:07:21.002Z,80.68
2017-11-11T00:08:20.340Z,80.26
2017-11-11T00:09:21.051Z,80.40
2017-11-11T00:10:20.290Z,80.64
2017-11-11T00:11:22.059Z,80.93
2017-11-11T00:12:21.997Z,79.97
2017-11-11T00:13:20.324Z,79.83
2017-11-11T00:14:22.006Z,79.83
2017-11-11T00:15:21.495Z,79.73
2017-11-11T00:16:21.498Z,79.83
2017-11-11T00:17:21.502Z,79.60
2017-11-11T00:18:21.093Z,79.31
2017-11-11T00:19:21.156Z,79.44
2017-11-11T00:20:21.007Z,79.83
2017-11-11T00:21:20.994Z,79.63
2017-11-11T00:22:21.089Z,80.02
2017-11-11T00:23:20.235Z,79.16
2017-11-11T00:24:22.975Z,79.16
2017-11-11T00:25:21.526Z,79.06
2017-11-11T00:26:22.008Z,79.16
2017-11-11T00:27:23.092Z,79.16
2017-11-11T00:28:20.206Z,79.35
2017-11-11T00:29:20.224Z,79.25
2017-11-11T00:30:21.502Z,79.06
2017-11-11T00:31:20.258Z,79.63
2017-11-11T00:32:20.166Z,79.35
2017-11-11T00:33:21.976Z,79.06
2017-11-11T00:34:21.001Z,79.35
2017-11-11T00:35:20.161Z,79.25
2017-11-11T00:36:20.994Z,79.25
2017-11-11T00:37:21.490Z,79.35
2017-11-11T00:38:21.001Z,78.97
2017-11-11T00:39:21.014Z,79.16
2017-11-11T00:40:22.008Z,79.16
2017-11-11T00:41:21.504Z,79.16
2017-11-11T00:42:20.165Z,78.69
2017-11-11T00:43:20.124Z,78.78
2017-11-11T00:44:21.002Z,78.97
2017-11-11T00:45:21.638Z,78.21
2017-11-11T00:46:20.018Z,78.69
2017-11-11T00:47:20.613Z,78.50
2017-11-11T00:48:21.505Z,78.40
2017-11-11T00:49:21.992Z,78.30
2017-11-11T00:50:20.096Z,77.83
2017-11-11T00:51:21.505Z,77.73
2017-11-11T00:52:21.032Z,78.11
2017-11-11T00:53:21.500Z,78.02
2017-11-11T00:54:21.009Z,77.73
2017-11-11T00:55:21.964Z,77.64
2017-11-11T00:56:20.609Z,78.30
2017-11-11T00:57:21.970Z,77.92
2017-11-11T00:58:22.010Z,77.55
2017-11-11T00:59:21.000Z,77.83
2017-11-11T01:00:22.001Z,78.02
2017-11-11T01:01:21.999Z,77.83
2017-11-11T01:02:20.990Z,77.26
2017-11-11T01:03:19.973Z,77.36
2017-11-11T01:04:21.499Z,77.36
2017-11-11T01:05:20.500Z,77.55
2017-11-11T01:06:20.511Z,78.11
2017-11-11T01:07:19.941Z,77.55
2017-11-11T01:08:22.682Z,77.92
2017-11-11T01:09:20.497Z,77.73
2017-11-11T01:10:22.500Z,78.40
2017-11-11T01:11:21.014Z,77.55
2017-11-11T01:12:21.507Z,77.92
2017-11-11T01:13:19.942Z,77.83
2017-11-11T01:14:20.513Z,77.64
2017-11-11T01:15:19.951Z,78.11
2017-11-11T01:16:21.005Z,77.83
2017-11-11T01:17:20.997Z,77.92
2017-11-11T01:18:21.509Z,77.73
2017-11-11T01:19:20.478Z,77.83
2017-11-11T01:20:20.518Z,77.98
2017-11-11T01:21:21.498Z,77.83
2017-11-11T01:22:19.948Z,77.79
2017-11-11T01:23:19.831Z,78.27
2017-11-11T01:24:22.058Z,77.98
2017-11-11T01:25:20.999Z,77.64
2017-11-11T01:26:20.498Z,77.55
2017-11-11T01:27:19.780Z,77.83
2017-11-11T01:28:19.775Z,77.64
2017-11-11T01:29:20.468Z,77.70
2017-11-11T01:30:19.763Z,78.30
2017-11-11T01:31:19.786Z,77.79
2017-11-11T01:32:19.782Z,78.36
2017-11-11T01:33:19.745Z,77.89
2017-11-11T01:34:19.747Z,77.60
2017-11-11T01:35:19.733Z,78.59
2017-11-11T01:36:19.732Z,77.70
2017-11-11T01:37:19.721Z,78.11
2017-11-11T01:38:19.716Z,78.21
2017-11-11T01:39:19.710Z,77.83
2017-11-11T01:40:19.705Z,77.73
2017-11-11T01:41:20.481Z,78.27
2017-11-11T01:42:19.703Z,78.08
2017-11-11T01:43:19.732Z,79.06
2017-11-11T01:44:20.467Z,78.93
2017-11-11T01:45:19.679Z,78.74
2017-11-11T01:46:19.667Z,78.55
2017-11-11T01:47:20.472Z,79.25
2017-11-11T01:48:19.675Z,78.97
2017-11-11T01:49:19.678Z,78.88
2017-11-11T01:50:20.473Z,78.78
2017-11-11T01:51:19.638Z,78.30
2017-11-11T01:52:19.637Z,77.83
2017-11-11T01:53:19.627Z,78.50
2017-11-11T01:54:20.472Z,78.40
2017-11-11T01:55:19.616Z,77.83
2017-11-11T01:56:19.622Z,77.92
2017-11-11T01:57:19.609Z,77.45
2017-11-11T01:58:19.614Z,77.41
2017-11-11T01:59:19.592Z,77.60
2017-11-11T02:00:19.597Z,77.60
2017-11-11T02:01:19.586Z,77.03
2017-11-11T02:02:19.578Z,77.31
2017-11-11T02:03:19.588Z,77.70
2017-11-11T02:04:19.781Z,77.41
2017-11-11T02:05:19.561Z,77.41
2017-11-11T02:06:19.551Z,77.12
2017-11-11T02:07:19.546Z,77.70
2017-11-11T02:08:19.656Z,76.93
2017-11-11T02:09:20.483Z,76.56
2017-11-11T02:10:19.527Z,76.84
2017-11-11T02:11:19.519Z,76.75
2017-11-11T02:12:19.514Z,76.75
2017-11-11T02:13:19.517Z,77.12
2017-11-11T02:14:19.503Z,77.12
2017-11-11T02:15:19.497Z,77.12
2017-11-11T02:16:19.492Z,76.46
2017-11-11T02:17:19.488Z,76.56
2017-11-11T02:18:19.564Z,76.37
2017-11-11T02:19:19.487Z,76.65
2017-11-11T02:20:19.498Z,75.74
2017-11-11T02:21:19.544Z,76.59
2017-11-11T02:22:19.664Z,75.64
2017-11-11T02:23:19.446Z,75.93
2017-11-11T02:24:19.469Z,76.88
2017-11-11T02:25:19.437Z,76.69
2017-11-11T02:26:19.430Z,75.64
2017-11-11T02:27:19.526Z,75.74
2017-11-11T02:28:19.419Z,75.64
2017-11-11T02:29:19.421Z,75.74
2017-11-11T02:30:19.408Z,75.64
2017-11-11T02:31:19.400Z,75.55
2017-11-11T02:32:19.399Z,76.21
2017-11-11T02:33:19.394Z,76.59
2017-11-11T02:34:19.387Z,76.40
2017-11-11T02:35:19.378Z,76.40
2017-11-11T02:36:19.371Z,76.88
2017-11-11T02:37:19.366Z,76.78
2017-11-11T02:38:19.520Z,77.55
2017-11-11T02:39:19.353Z,79.16
2017-11-11T02:40:19.359Z,79.35
2017-11-11T02:41:19.342Z,79.79
2017-11-11T02:42:19.336Z,80.49
2017-11-11T02:43:19.330Z,80.77
2017-11-11T02:44:19.324Z,81.21
2017-11-11T02:45:20.127Z,81.40
2017-11-11T02:46:19.311Z,81.68
2017-11-11T02:47:19.307Z,82.01
2017-11-11T02:48:19.300Z,81.35
2017-11-11T02:49:19.974Z,81.44
2017-11-11T02:50:19.289Z,81.92
2017-11-11T02:51:19.281Z,81.16
2017-11-11T02:52:19.279Z,81.44
2017-11-11T02:53:19.271Z,81.44
2017-11-11T02:54:19.268Z,80.68
2017-11-11T02:55:19.273Z,80.58
2017-11-11T02:56:19.255Z,80.68
2017-11-11T02:57:19.549Z,80.77
2017-11-11T02:58:19.407Z,80.77
2017-11-11T02:59:19.314Z,80.77
2017-11-11T03:00:19.231Z,81.35
2017-11-11T03:01:19.234Z,80.77
2017-11-11T03:02:19.220Z,81.35
2017-11-11T03:03:20.144Z,81.06
2017-11-11T03:04:19.209Z,81.44
2017-11-11T03:05:19.211Z,81.44
2017-11-11T03:06:19.261Z,81.44
2017-11-11T03:07:19.191Z,81.44
2017-11-11T03:08:19.189Z,81.35
2017-11-11T03:09:19.185Z,81.54
2017-11-11T03:10:19.177Z,81.44
2017-11-11T03:11:19.171Z,82.20
2017-11-11T03:12:19.164Z,81.35
2017-11-11T03:13:19.164Z,82.01
2017-11-11T03:14:19.159Z,81.16
2017-11-11T03:15:19.148Z,81.35
2017-11-11T03:16:19.142Z,81.25
2017-11-11T03:17:19.138Z,80.02
2017-11-11T03:18:19.133Z,79.63
2017-11-11T03:19:19.125Z,79.92
2017-11-11T03:20:19.121Z,79.83
2017-11-11T03:21:19.125Z,79.63
2017-11-11T03:22:19.108Z,80.02
2017-11-11T03:23:19.980Z,79.44
2017-11-11T03:24:19.978Z,79.63
2017-11-11T03:25:19.097Z,80.02
2017-11-11T03:26:19.087Z,79.44
2017-11-11T03:27:19.082Z,79.35
2017-11-11T03:28:20.187Z,79.25
2017-11-11T03:29:19.072Z,79.73
2017-11-11T03:30:19.071Z,80.58
2017-11-11T03:31:19.064Z,80.96
2017-11-11T03:32:19.055Z,81.35
2017-11-11T03:33:19.052Z,82.10
2017-11-11T03:34:19.046Z,81.73
2017-11-11T03:35:19.160Z,81.44
2017-11-11T03:36:19.158Z,82.20
2017-11-11T03:37:19.030Z,82.29
2017-11-11T03:38:19.027Z,81.82
2017-11-11T03:39:19.194Z,81.25
2017-11-11T03:40:19.013Z,81.44
2017-11-11T03:41:19.129Z,81.54
2017-11-11T03:42:19.000Z,81.44
2017-11-11T03:43:18.994Z,80.30
2017-11-11T03:44:18.993Z,79.92
2017-11-11T03:45:19.088Z,80.11
2017-11-11T03:46:18.975Z,79.63
2017-11-11T03:47:18.971Z,79.44
2017-11-11T03:48:18.966Z,79.73
2017-11-11T03:49:18.959Z,79.83
2017-11-11T03:50:18.953Z,79.83
2017-11-11T03:51:18.947Z,79.73
2017-11-11T03:52:18.966Z,79.25
2017-11-11T03:53:18.937Z,79.83
2017-11-11T03:54:18.931Z,79.92
2017-11-11T03:55:18.925Z,79.16
2017-11-11T03:56:18.923Z,79.54
2017-11-11T03:57:18.916Z,78.88
2017-11-11T03:58:18.908Z,79.35
2017-11-11T03:59:19.232Z,79.16
2017-11-11T04:00:18.897Z,79.16
2017-11-11T04:01:18.950Z,79.35
2017-11-11T04:02:18.897Z,79.35
2017-11-11T04:03:19.479Z,79.35
2017-11-11T04:04:19.059Z,79.06
2017-11-11T04:05:18.872Z,79.35
2017-11-11T04:06:18.864Z,79.35
2017-11-11T04:07:18.859Z,79.06
2017-11-11T04:08:18.851Z,79.25
2017-11-11T04:09:18.846Z,79.54
2017-11-11T04:10:18.998Z,79.92
2017-11-11T04:11:18.842Z,79.54
2017-11-11T04:12:18.827Z,80.30
2017-11-11T04:13:19.480Z,80.77
2017-11-11T04:14:18.815Z,80.68
2017-11-11T04:15:18.810Z,80.49
2017-11-11T04:16:18.805Z,80.87
2017-11-11T04:17:18.799Z,81.63
2017-11-11T04:18:39.949Z,80.77
2017-11-11T04:19:19.479Z,80.68
2017-11-11T04:20:18.781Z,80.58
2017-11-11T04:21:18.776Z,80.40
2017-11-11T04:22:18.769Z,80.68
2017-11-11T04:23:18.764Z,80.26
2017-11-11T04:24:19.480Z,80.68
2017-11-11T04:25:18.755Z,80.77
2017-11-11T04:26:18.756Z,80.49
2017-11-11T04:27:18.743Z,80.77
2017-11-11T04:28:19.981Z,80.58
2017-11-11T04:29:18.731Z,80.68
2017-11-11T04:30:18.920Z,80.87
2017-11-11T04:31:18.798Z,80.49
2017-11-11T04:32:18.715Z,81.54
2017-11-11T04:33:18.705Z,81.25
2017-11-11T04:34:18.703Z,80.77
2017-11-11T04:35:19.482Z,80.11
2017-11-11T04:36:18.686Z,80.68
2017-11-11T04:37:18.685Z,80.77
2017-11-11T04:38:18.676Z,80.30
2017-11-11T04:39:18.670Z,79.63
2017-11-11T04:40:18.666Z,79.54
2017-11-11T04:41:19.481Z,79.92
2017-11-11T04:42:18.659Z,80.30
2017-11-11T04:43:18.666Z,80.40
2017-11-11T04:44:18.640Z,79.73
2017-11-11T04:45:18.642Z,80.02
2017-11-11T04:46:18.628Z,79.83
2017-11-11T04:47:18.624Z,79.92
2017-11-11T04:48:18.625Z,79.25
2017-11-11T04:49:18.612Z,79.06
2017-11-11T04:50:19.487Z,79.06
2017-11-11T04:51:18.598Z,79.35
2017-11-11T04:52:18.594Z,79.35
2017-11-11T04:53:18.589Z,79.44
2017-11-11T04:54:18.581Z,79.63
2017-11-11T04:55:19.482Z,79.16
2017-11-11T04:56:18.574Z,79.06
2017-11-11T04:57:18.567Z,79.16
2017-11-11T04:58:18.559Z,79.35
2017-11-11T04:59:19.552Z,79.92
2017-11-11T05:00:18.547Z,79.16
2017-11-11T05:01:18.541Z,79.25
2017-11-11T05:02:18.536Z,79.25
2017-11-11T05:03:18.528Z,79.60
2017-11-11T05:04:18.525Z,79.92
2017-11-11T05:05:18.519Z,78.97
2017-11-11T05:06:18.512Z,79.41
2017-11-11T05:07:18.505Z,79.88
2017-11-11T05:08:18.501Z,79.63
2017-11-11T05:09:18.494Z,79.06
2017-11-11T05:10:18.488Z,79.35
2017-11-11T05:11:18.983Z,79.25
2017-11-11T05:12:18.478Z,78.97
2017-11-11T05:13:18.470Z,79.06
2017-11-11T05:14:18.466Z,79.54
2017-11-11T05:15:18.462Z,79.54
2017-11-11T05:16:18.452Z,79.25
2017-11-11T05:17:18.448Z,78.97
2017-11-11T05:18:18.441Z,79.16
2017-11-11T05:19:18.434Z,79.16
2017-11-11T05:20:18.431Z,79.63
2017-11-11T05:21:18.424Z,79.06
2017-11-11T05:22:18.417Z,78.97
2017-11-11T05:23:18.414Z,79.35
2017-11-11T05:24:18.405Z,79.06
2017-11-11T05:25:18.402Z,79.44
2017-11-11T05:26:18.395Z,79.06
2017-11-11T05:27:18.388Z,79.54
2017-11-11T05:28:18.384Z,79.25
2017-11-11T05:29:18.376Z,78.69
2017-11-11T05:30:18.372Z,79.25
2017-11-11T05:31:18.367Z,79.16
2017-11-11T05:32:18.360Z,78.88
2017-11-11T05:33:18.354Z,79.16
2017-11-11T05:34:18.351Z,78.69
2017-11-11T05:35:18.342Z,78.78
2017-11-11T05:36:18.339Z,78.78
2017-11-11T05:37:18.332Z,78.78
2017-11-11T05:38:18.325Z,79.35
2017-11-11T05:39:18.320Z,78.50
2017-11-11T05:40:18.313Z,78.69
2017-11-11T05:41:18.310Z,79.06
2017-11-11T05:42:18.305Z,79.25
2017-11-11T05:43:18.296Z,79.25
2017-11-11T05:44:18.290Z,79.25
2017-11-11T05:45:18.290Z,79.44
2017-11-11T05:46:18.281Z,78.69
2017-11-11T05:47:18.273Z,79.25
2017-11-11T05:48:18.269Z,78.59
2017-11-11T05:49:18.261Z,78.69
2017-11-11T05:50:18.254Z,78.64
2017-11-11T05:51:18.249Z,79.22
2017-11-11T05:52:18.243Z,79.22
2017-11-11T05:53:18.238Z,79.54
2017-11-11T05:54:18.231Z,79.41
2017-11-11T05:55:18.224Z,79.35
2017-11-11T05:56:18.219Z,79.41
2017-11-11T05:57:18.217Z,79.03
2017-11-11T05:58:18.990Z,78.83
2017-11-11T05:59:18.201Z,79.31
2017-11-11T06:00:18.195Z,79.03
2017-11-11T06:01:18.190Z,79.31
2017-11-11T06:02:18.183Z,79.22
2017-11-11T06:03:18.178Z,79.22
2017-11-11T06:04:18.172Z,79.41
2017-11-11T06:05:18.183Z,79.88
2017-11-11T06:06:18.158Z,79.03
2017-11-11T06:07:33.073Z,79.69
2017-11-11T06:08:18.154Z,79.41
2017-11-11T06:09:18.151Z,79.69
2017-11-11T06:10:18.142Z,79.79
2017-11-11T06:11:18.138Z,79.88
2017-11-11T06:12:18.132Z,80.07
2017-11-11T06:13:18.124Z,80.07
2017-11-11T06:14:18.125Z,80.26
2017-11-11T06:15:18.111Z,80.26
2017-11-11T06:16:18.107Z,80.16
2017-11-11T06:17:18.099Z,80.07
2017-11-11T06:18:18.094Z,80.74
2017-11-11T06:19:18.088Z,80.26
2017-11-11T06:20:18.081Z,80.64
2017-11-11T06:21:18.996Z,80.64
2017-11-11T06:22:18.069Z,80.74
2017-11-11T06:23:18.062Z,80.45
2017-11-11T06:24:18.056Z,80.74
2017-11-11T06:25:18.053Z,80.35
2017-11-11T06:26:18.044Z,80.16
2017-11-11T06:27:18.038Z,80.07
2017-11-11T06:28:18.039Z,80.64
2017-11-11T06:29:18.027Z,80.16
2017-11-11T06:30:18.019Z,80.64
2017-11-11T06:31:18.014Z,80.64
2017-11-11T06:32:18.008Z,80.07
2017-11-11T06:33:18.002Z,80.64
2017-11-11T06:34:17.996Z,79.88
2017-11-11T06:35:17.990Z,80.26
2017-11-11T06:36:17.984Z,80.07
2017-11-11T06:37:17.977Z,79.41
2017-11-11T06:38:17.971Z,79.88
2017-11-11T06:39:17.964Z,80.74
2017-11-11T06:40:17.963Z,79.60
2017-11-11T06:41:17.952Z,79.60
2017-11-11T06:42:17.946Z,79.83
2017-11-11T06:43:17.940Z,79.41
2017-11-11T06:44:17.937Z,78.97
2017-11-11T06:45:18.495Z,79.22
2017-11-11T06:46:17.921Z,78.97
2017-11-11T06:47:17.915Z,78.83
2017-11-11T06:48:17.909Z,79.16
2017-11-11T06:49:17.905Z,79.35
2017-11-11T06:50:17.900Z,79.16
2017-11-11T06:51:17.894Z,79.44
2017-11-11T06:52:17.889Z,79.06
2017-11-11T06:53:17.880Z,78.97
2017-11-11T06:54:17.880Z,79.06
2017-11-11T06:55:17.873Z,78.78
2017-11-11T06:56:17.863Z,78.40
2017-11-11T06:57:17.870Z,78.30
2017-11-11T06:58:17.849Z,78.97
2017-11-11T06:59:17.847Z,78.30
2017-11-11T07:00:17.840Z,78.40
2017-11-11T07:01:17.836Z,78.11
2017-11-11T07:02:17.827Z,78.40
2017-11-11T07:03:17.828Z,78.30
2017-11-11T07:04:17.815Z,78.40
2017-11-11T07:05:17.811Z,78.69
2017-11-11T07:06:17.805Z,78.88
2017-11-11T07:07:17.797Z,78.30
2017-11-11T07:08:17.793Z,78.50
2017-11-11T07:09:17.789Z,77.64
2017-11-11T07:10:17.780Z,78.11
2017-11-11T07:11:17.776Z,77.64
2017-11-11T07:12:17.770Z,78.02
2017-11-11T07:13:17.768Z,77.83
2017-11-11T07:14:17.777Z,77.17
2017-11-11T07:15:17.753Z,77.26
2017-11-11T07:16:17.751Z,76.69
2017-11-11T07:17:17.741Z,76.50
2017-11-11T07:18:17.735Z,76.69
2017-11-11T07:19:17.729Z,76.31
2017-11-11T07:20:17.724Z,76.31
2017-11-11T07:21:17.719Z,75.93
2017-11-11T07:22:17.712Z,75.07
2017-11-11T07:23:17.709Z,75.74
2017-11-11T07:24:17.701Z,75.64
2017-11-11T07:25:17.697Z,75.74
2017-11-11T07:26:17.691Z,75.45
2017-11-11T07:27:17.684Z,75.74
2017-11-11T07:28:17.678Z,75.64
2017-11-11T07:29:17.674Z,75.07
2017-11-11T07:30:17.668Z,74.79
2017-11-11T07:31:17.662Z,74.88
2017-11-11T07:32:17.658Z,75.07
2017-11-11T07:33:17.651Z,74.92
2017-11-11T07:34:17.645Z,75.11
2017-11-11T07:35:17.640Z,74.16
2017-11-11T07:36:17.635Z,74.92
2017-11-11T07:37:17.629Z,75.17
2017-11-11T07:38:17.632Z,75.07
2017-11-11T07:39:17.618Z,74.92
2017-11-11T07:40:17.616Z,74.92
2017-11-11T07:41:17.609Z,75.11
2017-11-11T07:42:17.604Z,75.21
2017-11-11T07:43:17.595Z,74.63
2017-11-11T07:44:17.590Z,75.30
2017-11-11T07:45:17.588Z,75.21
2017-11-11T07:46:17.578Z,74.82
2017-11-11T07:47:17.573Z,74.35
2017-11-11T07:48:17.568Z,74.35
2017-11-11T07:49:17.564Z,74.92
2017-11-11T07:50:17.559Z,75.11
2017-11-11T07:51:17.551Z,75.21
2017-11-11T07:52:17.546Z,75.02
2017-11-11T07:53:17.540Z,74.92
2017-11-11T07:54:17.534Z,74.73
2017-11-11T07:55:17.530Z,75.02
2017-11-11T07:56:17.527Z,75.68
2017-11-11T07:57:17.524Z,75.21
2017-11-11T07:58:17.514Z,74.92
2017-11-11T07:59:17.509Z,75.40
2017-11-11T08:00:17.506Z,76.06
2017-11-11T08:01:17.498Z,75.68
2017-11-11T08:02:17.492Z,76.25
2017-11-11T08:03:17.487Z,75.96
2017-11-11T08:04:17.482Z,75.68
2017-11-11T08:05:17.476Z,76.16
2017-11-11T08:06:17.481Z,75.59
2017-11-11T08:07:17.465Z,75.59
2017-11-11T08:08:17.467Z,75.78
2017-11-11T08:09:17.457Z,75.78
2017-11-11T08:10:17.448Z,76.16
2017-11-11T08:11:17.442Z,75.96
2017-11-11T08:12:17.444Z,75.21
2017-11-11T08:13:17.433Z,74.92
2017-11-11T08:14:17.469Z,75.11
2017-11-11T08:15:17.422Z,75.21
2017-11-11T08:16:17.416Z,75.21
2017-11-11T08:17:17.416Z,75.11
2017-11-11T08:18:17.405Z,75.21
2017-11-11T08:19:17.401Z,76.06
2017-11-11T08:20:17.393Z,75.59
2017-11-11T08:21:17.392Z,75.40
2017-11-11T08:22:17.386Z,75.11
2017-11-11T08:23:17.379Z,74.92
2017-11-11T08:24:17.374Z,75.11
2017-11-11T08:25:18.011Z,75.11
2017-11-11T08:26:17.363Z,75.40
2017-11-11T08:27:17.358Z,75.96
2017-11-11T08:28:17.353Z,75.68
2017-11-11T08:29:18.008Z,75.11
2017-11-11T08:30:17.342Z,75.11
2017-11-11T08:31:17.336Z,75.59
2017-11-11T08:32:17.338Z,75.40
2017-11-11T08:33:17.332Z,75.96
2017-11-11T08:34:17.324Z,75.78
2017-11-11T08:35:17.317Z,75.87
2017-11-11T08:36:17.319Z,75.96
2017-11-11T08:37:17.313Z,75.11
2017-11-11T08:38:17.326Z,75.68
2017-11-11T08:39:17.295Z,75.78
2017-11-11T08:40:18.004Z,75.68
2017-11-11T08:41:17.287Z,75.30
2017-11-11T08:42:17.281Z,75.21
2017-11-11T08:43:17.286Z,75.78
2017-11-11T08:44:17.275Z,74.92
2017-11-11T08:45:17.266Z,74.73
2017-11-11T08:46:17.259Z,75.05
2017-11-11T08:47:17.259Z,75.02
2017-11-11T08:48:17.250Z,75.34
2017-11-11T08:49:17.245Z,75.02
2017-11-11T08:50:17.241Z,75.11
2017-11-11T08:51:17.233Z,75.02
2017-11-11T08:52:17.230Z,74.92
2017-11-11T08:53:17.225Z,75.43
2017-11-11T08:54:17.218Z,74.82
2017-11-11T08:55:17.213Z,79.24
2017-11-11T08:56:17.208Z,80.66
2017-11-11T08:57:17.210Z,77.00
2017-11-11T08:58:18.006Z,74.52
2017-11-11T08:59:17.195Z,72.81
2017-11-11T09:00:17.198Z,72.81
2017-11-11T09:01:17.185Z,72.62
2017-11-11T09:02:17.181Z,72.33
2017-11-11T09:03:17.175Z,73.00
2017-11-11T09:04:17.171Z,73.47
2017-11-11T09:05:17.165Z,72.71
2017-11-11T09:06:17.160Z,72.58
2017-11-11T09:07:17.156Z,72.81
2017-11-11T09:08:17.151Z,72.96
2017-11-11T09:09:17.149Z,73.82
2017-11-11T09:10:17.142Z,73.15
2017-11-11T09:11:17.138Z,72.77
2017-11-11T09:12:17.135Z,73.44
2017-11-11T09:13:17.131Z,72.77
2017-11-11T09:14:17.132Z,73.53
2017-11-11T09:15:17.119Z,74.29
2017-11-11T09:16:17.113Z,73.15
2017-11-11T09:17:17.110Z,73.15
2017-11-11T09:18:17.105Z,73.19
2017-11-11T09:19:17.101Z,73.10
2017-11-11T09:20:17.095Z,73.28
2017-11-11T09:21:17.091Z,73.47
2017-11-11T09:22:17.088Z,72.81
2017-11-11T09:23:17.082Z,71.95
2017-11-11T09:24:17.077Z,72.05
2017-11-11T09:25:17.073Z,71.86
2017-11-11T09:26:17.069Z,72.33
2017-11-11T09:27:17.064Z,71.76
2017-11-11T09:28:17.063Z,71.86
2017-11-11T09:29:17.057Z,71.86
2017-11-11T09:30:17.051Z,72.81
2017-11-11T09:31:17.046Z,73.47
2017-11-11T09:32:17.076Z,72.71
2017-11-11T09:33:17.039Z,72.05
2017-11-11T09:34:17.033Z,70.90
2017-11-11T09:35:17.323Z,72.05
2017-11-11T09:36:17.026Z,72.71
2017-11-11T09:37:17.021Z,72.81
2017-11-11T09:38:17.016Z,71.95
2017-11-11T09:39:17.014Z,70.43
2017-11-11T09:40:17.008Z,70.33
2017-11-11T09:41:17.007Z,69.79
2017-11-11T09:42:17.006Z,69.57
2017-11-11T09:43:16.995Z,69.79
2017-11-11T09:44:16.993Z,69.29
2017-11-11T09:45:16.990Z,69.32
2017-11-11T09:46:17.025Z,69.95
2017-11-11T09:47:16.982Z,70.47
2017-11-11T09:48:16.978Z,70.18
2017-11-11T09:49:16.974Z,70.08
2017-11-11T09:50:16.968Z,70.24
2017-11-11T09:51:16.966Z,70.33
2017-11-11T09:52:16.960Z,70.43
2017-11-11T09:53:16.958Z,70.14
2017-11-11T09:54:16.953Z,70.24
2017-11-11T09:55:16.952Z,69.85
2017-11-11T09:56:16.945Z,70.72
2017-11-11T09:57:16.942Z,70.14
2017-11-11T09:58:16.936Z,70.33
2017-11-11T09:59:16.935Z,70.81
2017-11-11T10:00:16.930Z,70.14
2017-11-11T10:01:16.946Z,70.14
2017-11-11T10:02:16.920Z,70.24
2017-11-11T10:03:17.514Z,69.95
2017-11-11T10:04:16.913Z,70.52
2017-11-11T10:05:16.913Z,70.72
2017-11-11T10:06:16.904Z,70.90
2017-11-11T10:07:16.901Z,70.43
2017-11-11T10:08:16.897Z,70.90
2017-11-11T10:09:16.896Z,71.09
2017-11-11T10:10:16.887Z,71.28
2017-11-11T10:11:16.891Z,71.09
2017-11-11T10:12:16.881Z,71.19
2017-11-11T10:13:16.874Z,71.00
2017-11-11T10:14:16.871Z,71.47
2017-11-11T10:15:16.869Z,70.43
2017-11-11T10:16:16.864Z,70.14
2017-11-11T10:17:16.859Z,70.14
2017-11-11T10:18:16.859Z,69.95
2017-11-11T10:19:16.876Z,70.72
2017-11-11T10:20:16.847Z,70.33
2017-11-11T10:21:16.841Z,70.62
2017-11-11T10:22:16.839Z,70.33
2017-11-11T10:23:16.833Z,70.14
2017-11-11T10:24:16.831Z,70.14
2017-11-11T10:25:16.830Z,70.24
2017-11-11T10:26:16.819Z,69.95
2017-11-11T10:27:16.815Z,69.48
2017-11-11T10:28:16.810Z,70.24
2017-11-11T10:29:16.807Z,69.95
2017-11-11T10:30:16.801Z,69.00
2017-11-11T10:31:16.798Z,69.19
2017-11-11T10:32:16.793Z,68.71
2017-11-11T10:33:16.789Z,68.90
2017-11-11T10:34:16.787Z,68.71
2017-11-11T10:35:16.781Z,68.43
2017-11-11T10:36:16.780Z,68.24
2017-11-11T10:37:16.771Z,68.62
2017-11-11T10:38:16.768Z,68.52
2017-11-11T10:39:16.790Z,68.90
2017-11-11T10:40:16.759Z,68.81
2017-11-11T10:41:16.771Z,69.10
2017-11-11T10:42:16.751Z,68.71
2017-11-11T10:43:16.747Z,68.62
2017-11-11T10:44:16.742Z,68.62
2017-11-11T10:45:16.738Z,68.81
2017-11-11T10:46:16.733Z,68.24
2017-11-11T10:47:16.732Z,68.05
2017-11-11T10:48:16.726Z,67.95
2017-11-11T10:49:16.719Z,68.24
2017-11-11T10:50:16.715Z,68.43
2017-11-11T10:51:16.712Z,68.43
2017-11-11T10:52:16.712Z,68.24
2017-11-11T10:53:16.706Z,68.33
2017-11-11T10:54:17.433Z,68.43
2017-11-11T10:55:16.767Z,68.24
2017-11-11T10:56:16.693Z,67.67
2017-11-11T10:57:16.707Z,67.67
2017-11-11T10:58:16.681Z,67.76
2017-11-11T10:59:16.680Z,67.95
2017-11-11T11:00:16.675Z,67.76
2017-11-11T11:01:16.670Z,67.47
2017-11-11T11:02:16.668Z,67.86
2017-11-11T11:03:16.659Z,68.24
2017-11-11T11:04:16.656Z,68.62
2017-11-11T11:05:16.652Z,67.95
2017-11-11T11:06:16.647Z,67.86
2017-11-11T11:07:16.644Z,68.15
2017-11-11T11:08:16.639Z,68.33
2017-11-11T11:09:16.634Z,67.86
2017-11-11T11:10:17.521Z,67.38
2017-11-11T11:11:16.633Z,67.38
2017-11-11T11:12:16.621Z,67.57
2017-11-11T11:13:16.627Z,67.38
2017-11-11T11:14:16.612Z,67.38
2017-11-11T11:15:16.609Z,67.38
2017-11-11T11:16:16.649Z,67.19
2017-11-11T11:17:16.600Z,67.19
2017-11-11T11:18:16.595Z,67.38
2017-11-11T11:19:16.590Z,67.38
2017-11-11T11:20:16.586Z,67.57
2017-11-11T11:21:16.583Z,67.19
2017-11-11T11:22:16.584Z,67.95
2017-11-11T11:23:16.573Z,67.57
2017-11-11T11:24:16.576Z,67.47
2017-11-11T11:25:16.565Z,68.52
2017-11-11T11:26:17.534Z,67.95
2017-11-11T11:27:16.560Z,68.71
2017-11-11T11:28:16.555Z,69.38
2017-11-11T11:29:16.550Z,69.38
2017-11-11T11:30:16.546Z,69.95
2017-11-11T11:31:16.543Z,69.19
2017-11-11T11:32:16.539Z,69.95
2017-11-11T11:33:16.533Z,68.81
2017-11-11T11:34:16.527Z,69.29
2017-11-11T11:35:16.532Z,69.95
2017-11-11T11:36:16.520Z,69.57
2017-11-11T11:37:16.516Z,69.57
2017-11-11T11:38:16.511Z,70.05
2017-11-11T11:39:16.507Z,70.14
2017-11-11T11:40:16.514Z,70.14
2017-11-11T11:41:17.255Z,70.05
2017-11-11T11:42:16.765Z,70.24
2017-11-11T11:43:16.668Z,70.05
2017-11-11T11:44:16.623Z,69.95
2017-11-11T11:45:18.060Z,69.48
2017-11-11T11:46:16.561Z,70.05
2017-11-11T11:47:16.474Z,69.76
2017-11-11T11:48:16.468Z,70.33
2017-11-11T11:49:16.464Z,70.14
2017-11-11T11:50:16.462Z,70.24
2017-11-11T11:51:16.457Z,69.95
2017-11-11T11:52:16.452Z,70.33
2017-11-11T11:53:16.446Z,70.24
2017-11-11T11:54:16.443Z,70.14
2017-11-11T11:55:16.440Z,69.95
2017-11-11T11:56:16.454Z,69.95
2017-11-11T11:57:16.436Z,69.57
2017-11-11T11:58:16.426Z,70.14
2017-11-11T11:59:16.421Z,69.19
2017-11-11T12:00:16.417Z,69.10
2017-11-11T12:01:17.097Z,69.29
2017-11-11T12:02:16.408Z,69.10
2017-11-11T12:03:16.405Z,68.71
2017-11-11T12:04:16.399Z,69.48
2017-11-11T12:05:16.400Z,69.10
2017-11-11T12:06:16.392Z,69.00
2017-11-11T12:07:16.386Z,68.90
2017-11-11T12:08:16.384Z,68.90
2017-11-11T12:09:16.378Z,68.81
2017-11-11T12:10:16.374Z,68.90
2017-11-11T12:11:16.370Z,69.04
2017-11-11T12:12:16.367Z,68.84
2017-11-11T12:13:16.361Z,68.62
2017-11-11T12:14:16.357Z,68.52
2017-11-11T12:15:16.353Z,68.27
2017-11-11T12:16:16.350Z,68.65
2017-11-11T12:17:16.346Z,68.56
2017-11-11T12:18:16.342Z,68.24
2017-11-11T12:19:16.339Z,68.08
2017-11-11T12:20:16.334Z,67.80
2017-11-11T12:21:16.337Z,67.80
2017-11-11T12:22:16.326Z,67.51
2017-11-11T12:23:16.320Z,67.89
2017-11-11T12:24:16.322Z,67.22
2017-11-11T12:25:16.511Z,67.13
2017-11-11T12:26:16.312Z,67.22
2017-11-11T12:27:16.324Z,66.94
2017-11-11T12:28:16.313Z,67.61
2017-11-11T12:29:16.465Z,67.32
2017-11-11T12:30:16.484Z,66.75
2017-11-11T12:31:16.532Z,67.03
2017-11-11T12:32:16.485Z,66.66
2017-11-11T12:33:16.459Z,66.85
2017-11-11T12:34:16.343Z,66.94
2017-11-11T12:35:16.445Z,66.75
2017-11-11T12:36:16.454Z,66.75
2017-11-11T12:37:16.425Z,66.85
2017-11-11T12:38:16.445Z,66.56
2017-11-11T12:39:16.464Z,66.85
2017-11-11T12:40:16.411Z,66.37
2017-11-11T12:41:16.281Z,66.46
2017-11-11T12:42:16.399Z,66.94
2017-11-11T12:43:16.306Z,66.37
2017-11-11T12:44:17.141Z,66.85
2017-11-11T12:45:16.477Z,65.99
2017-11-11T12:46:16.305Z,66.56
2017-11-11T12:47:16.253Z,65.89
2017-11-11T12:48:16.271Z,66.18
2017-11-11T12:49:16.231Z,66.75
2017-11-11T12:50:16.254Z,66.56
2017-11-11T12:51:16.218Z,66.37
2017-11-11T12:52:16.218Z,66.56